Time;durP1;ratioP1;P1;durP2;ratioP2;P2;SDS_P1;SDS_P2;PMS_P1;PMS_P2;Temp;Humidity;BMP_temperature;BMP_pressure;BME280_temperature;BME280_humidity;BME280_pressure;Samples;Min_cycle;Max_cycle;Signal;HPM_P1;HPM_P2
2022/06/06 00:00:05;;;;;;;4.18;3.78;;;22.50;63.60;;;;;;5055012;28;20045;-64
2022/06/06 00:02:31;;;;;;;4.32;3.92;;;22.50;63.50;;;;;;5054393;28;20107;-64
2022/06/06 00:05:00;;;;;;;4.15;3.75;;;22.50;63.50;;;;;;5055152;28;20051;-64
2022/06/06 00:07:26;;;;;;;4.03;3.72;;;22.50;63.50;;;;;;5039023;28;20575;-65
2022/06/06 00:09:52;;;;;;;4.38;3.97;;;22.50;63.50;;;;;;5056035;28;20045;-64
2022/06/06 00:12:20;;;;;;;4.15;3.75;;;22.50;63.40;;;;;;5038595;28;20496;-65
2022/06/06 00:14:46;;;;;;;3.85;3.55;;;22.50;63.40;;;;;;5057092;28;20040;-64
2022/06/06 00:17:13;;;;;;;4.05;3.75;;;22.50;63.30;;;;;;5040251;28;20110;-65
2022/06/06 00:19:39;;;;;;;4.10;3.67;;;22.50;63.30;;;;;;5055163;28;20051;-64
2022/06/06 00:22:05;;;;;;;4.18;3.80;;;22.50;63.30;;;;;;5055134;28;20041;-64
2022/06/06 00:24:31;;;;;;;3.22;3.03;;;22.50;63.40;;;;;;5054216;28;20366;-65
2022/06/06 00:26:57;;;;;;;4.00;3.63;;;22.50;63.30;;;;;;5053584;28;20051;-64
2022/06/06 00:29:22;;;;;;;3.55;3.20;;;22.50;63.30;;;;;;5020300;28;20106;-64
2022/06/06 00:37:21;;;;;;;3.30;3.10;;;22.50;63.20;;;;;;5055243;28;20099;-63
2022/06/06 00:39:47;;;;;;;3.17;2.97;;;22.40;63.20;;;;;;5057215;28;20055;-65
2022/06/06 00:42:24;;;;;;;3.40;3.17;;;22.50;63.20;;;;;;5050420;28;20789;-65
2022/06/06 00:45:30;;;;;;;3.42;3.08;;;22.50;63.20;;;;;;5057584;28;20047;-64
2022/06/06 00:48:05;;;;;;;2.88;2.67;;;22.50;63.10;;;;;;5053978;28;20033;-64
2022/06/06 00:50:46;;;;;;;3.50;3.03;;;22.50;63.20;;;;;;5053211;28;20064;-63
2022/06/06 00:53:14;;;;;;;2.92;2.72;;;22.50;63.30;;;;;;5055730;28;20074;-64
2022/06/06 00:55:45;;;;;;;2.80;2.60;;;22.40;63.10;;;;;;5055523;28;20043;-65
2022/06/06 00:58:15;;;;;;;2.92;2.72;;;22.50;63.10;;;;;;5055713;28;20068;-64
2022/06/06 01:00:43;;;;;;;3.00;2.80;;;22.40;63.10;;;;;;5052836;28;20045;-64
2022/06/06 01:03:13;;;;;;;2.70;2.50;;;22.40;63.10;;;;;;5055909;28;20045;-64
2022/06/06 01:05:40;;;;;;;2.75;2.55;;;22.40;63.10;;;;;;5055212;28;20032;-63
2022/06/06 01:08:07;;;;;;;4.07;2.65;;;22.40;63.00;;;;;;5054408;28;20164;-64
2022/06/06 01:10:34;;;;;;;2.55;2.35;;;22.40;63.00;;;;;;5057034;28;20040;-64
2022/06/06 01:13:00;;;;;;;2.92;2.67;;;22.40;62.90;;;;;;5053557;28;20041;-65
2022/06/06 01:15:31;;;;;;;3.15;2.63;;;22.40;62.80;;;;;;5054010;28;20036;-64
2022/06/06 01:18:19;;;;;;;2.63;2.42;;;22.40;62.80;;;;;;5055586;28;20041;-64
2022/06/06 01:21:06;;;;;;;2.72;2.53;;;22.40;62.60;;;;;;5052386;28;20116;-64
2022/06/06 01:23:56;;;;;;;3.28;3.08;;;22.40;62.60;;;;;;5054509;28;20127;-64
2022/06/06 01:26:42;;;;;;;3.10;2.90;;;22.40;63.20;;;;;;5054746;28;20122;-64
2022/06/06 01:29:28;;;;;;;3.45;3.15;;;22.40;62.70;;;;;;5054577;28;20709;-65
2022/06/06 01:32:04;;;;;;;3.20;3.00;;;22.40;62.60;;;;;;5053409;28;20045;-65
2022/06/06 01:34:33;;;;;;;3.45;3.15;;;22.40;62.70;;;;;;5051321;28;20509;-64
2022/06/06 01:36:59;;;;;;;3.88;3.58;;;22.40;62.80;;;;;;5052999;28;20181;-63
2022/06/06 01:39:30;;;;;;;4.10;3.80;;;22.40;62.70;;;;;;5053426;28;20553;-64
2022/06/06 01:42:08;;;;;;;3.67;3.38;;;22.40;62.70;;;;;;5053731;28;20265;-65
2022/06/06 01:44:37;;;;;;;4.40;4.00;;;22.30;62.70;;;;;;5053960;28;20040;-64
2022/06/06 01:47:07;;;;;;;3.80;3.50;;;22.40;62.70;;;;;;5054940;28;20448;-64
2022/06/06 01:49:34;;;;;;;4.38;4.00;;;22.40;62.70;;;;;;5059903;28;20033;-64
2022/06/06 01:52:07;;;;;;;4.20;3.80;;;22.40;62.60;;;;;;5060409;28;20032;-65
2022/06/06 01:54:33;;;;;;;4.10;3.80;;;22.40;62.60;;;;;;5060736;28;20045;-63
2022/06/06 01:57:01;;;;;;;4.60;4.20;;;22.40;62.70;;;;;;5059510;28;20434;-64
2022/06/06 01:59:28;;;;;;;4.35;4.05;;;22.40;62.60;;;;;;5058433;28;20092;-64
2022/06/06 02:01:54;;;;;;;4.78;4.38;;;22.40;62.60;;;;;;5059228;28;20048;-63
2022/06/06 02:04:19;;;;;;;4.80;4.40;;;22.40;62.60;;;;;;5057586;28;20083;-65
2022/06/06 02:06:46;;;;;;;5.25;4.75;;;22.40;62.60;;;;;;5041465;28;20044;-64
2022/06/06 02:09:12;;;;;;;4.82;4.43;;;22.40;62.50;;;;;;5059271;28;20051;-63
2022/06/06 02:11:38;;;;;;;5.00;4.50;;;22.30;62.20;;;;;;5061913;28;20040;-64
2022/06/06 02:14:04;;;;;;;5.63;5.13;;;22.40;62.30;;;;;;5061539;28;20044;-64
2022/06/06 02:16:30;;;;;;;4.95;4.45;;;22.30;62.20;;;;;;5062164;28;20037;-64
2022/06/06 02:18:56;;;;;;;5.10;4.70;;;22.30;62.20;;;;;;5043048;28;20044;-63
2022/06/06 02:21:21;;;;;;;5.00;4.60;;;22.30;62.20;;;;;;5061603;28;20166;-64
2022/06/06 02:23:48;;;;;;;5.75;4.95;;;22.30;62.20;;;;;;5059548;28;20815;-63
2022/06/06 02:26:17;;;;;;;5.35;4.85;;;22.30;62.20;;;;;;5042870;28;20095;-64
2022/06/06 02:28:43;;;;;;;4.85;4.43;;;22.30;62.20;;;;;;5044158;28;20707;-64
2022/06/06 02:31:09;;;;;;;5.22;4.72;;;22.30;62.00;;;;;;5058940;28;20056;-64
2022/06/06 02:33:36;;;;;;;6.10;5.55;;;22.30;62.00;;;;;;5062913;28;20049;-64
2022/06/06 02:36:03;;;;;;;5.18;4.68;;;22.30;62.00;;;;;;5058331;28;20507;-64
2022/06/06 02:38:30;;;;;;;5.10;4.68;;;22.30;62.00;;;;;;5060443;28;20341;-64
2022/06/06 02:41:07;;;;;;;4.65;4.25;;;22.30;61.90;;;;;;5062154;28;20117;-64
2022/06/06 02:43:39;;;;;;;6.63;5.60;;;22.30;61.90;;;;;;5060715;28;20064;-64
2022/06/06 02:46:05;;;;;;;6.28;5.40;;;22.30;61.80;;;;;;5060733;28;20086;-64
2022/06/06 02:48:32;;;;;;;6.18;5.57;;;22.30;61.80;;;;;;5060251;28;20397;-64
2022/06/06 02:50:58;;;;;;;6.35;5.22;;;22.30;61.80;;;;;;5059477;28;20040;-63
2022/06/06 02:53:24;;;;;;;5.95;5.38;;;22.30;61.70;;;;;;5061111;28;20040;-64
2022/06/06 02:55:53;;;;;;;6.32;5.32;;;22.30;61.80;;;;;;5060543;28;20036;-64
2022/06/06 02:58:23;;;;;;;6.53;5.88;;;22.30;61.70;;;;;;5060191;28;20159;-62
2022/06/06 03:00:53;;;;;;;6.97;6.27;;;22.30;61.60;;;;;;5057692;28;20055;-64
2022/06/06 03:03:18;;;;;;;6.75;5.85;;;22.30;61.70;;;;;;5057354;28;20045;-63
2022/06/06 03:06:03;;;;;;;7.03;5.97;;;22.30;61.60;;;;;;5039032;28;20044;-65
2022/06/06 03:08:28;;;;;;;6.35;5.40;;;22.30;61.40;;;;;;5056589;28;20141;-64
2022/06/06 03:11:26;;;;;;;6.05;5.47;;;22.30;61.60;;;;;;5057501;28;20520;-64
2022/06/06 03:14:13;;;;;;;6.07;5.32;;;22.30;61.50;;;;;;5052038;28;20862;-64
2022/06/06 03:22:52;;;;;;;5.60;4.97;;;22.20;61.20;;;;;;5039967;28;20487;-64
2022/06/06 03:25:53;;;;;;;4.85;4.35;;;22.20;61.30;;;;;;5056369;28;20043;-63
2022/06/06 03:28:25;;;;;;;7.05;5.38;;;22.20;61.20;;;;;;5056449;28;20057;-63
2022/06/06 03:31:16;;;;;;;5.00;4.40;;;22.20;61.30;;;;;;5054637;28;20077;-63
2022/06/06 03:33:48;;;;;;;5.38;4.50;;;22.20;61.10;;;;;;5056504;28;20080;-64
2022/06/06 03:36:30;;;;;;;5.10;4.60;;;22.20;61.20;;;;;;5055262;28;20159;-64
2022/06/06 03:38:58;;;;;;;4.60;4.20;;;22.20;61.10;;;;;;5055019;28;20040;-63
2022/06/06 03:41:27;;;;;;;6.03;4.82;;;22.20;61.20;;;;;;5054318;28;20083;-64
2022/06/06 03:44:03;;;;;;;5.10;4.60;;;22.20;61.20;;;;;;5054961;28;20067;-65
2022/06/06 03:46:45;;;;;;;5.05;4.38;;;22.20;61.00;;;;;;5055295;28;20041;-65
2022/06/06 03:49:16;;;;;;;4.78;4.03;;;22.20;61.10;;;;;;5053794;28;20064;-64
2022/06/06 03:51:51;;;;;;;4.35;3.95;;;22.20;61.00;;;;;;5055876;28;20039;-63
2022/06/06 03:54:43;;;;;;;5.07;4.55;;;22.20;60.90;;;;;;5057948;28;21706;-64
2022/06/06 03:57:17;;;;;;;4.97;4.40;;;22.20;60.70;;;;;;5056353;28;20047;-65
2022/06/06 03:59:45;;;;;;;6.22;4.35;;;22.20;60.90;;;;;;5057271;28;20044;-65
2022/06/06 04:02:17;;;;;;;4.82;4.25;;;22.20;60.90;;;;;;5055060;28;20033;-64
2022/06/06 04:04:43;;;;;;;4.70;4.30;;;22.20;60.90;;;;;;5054888;28;20045;-63
2022/06/06 04:07:09;;;;;;;4.30;3.90;;;22.20;61.00;;;;;;5055339;28;20559;-64
2022/06/06 04:09:35;;;;;;;4.72;4.22;;;22.20;60.80;;;;;;5056679;28;20043;-63
2022/06/06 04:12:25;;;;;;;4.30;3.90;;;22.20;60.80;;;;;;5055899;28;20464;-64
2022/06/06 04:15:20;;;;;;;4.50;4.10;;;22.20;60.70;;;;;;5057224;28;20044;-65
2022/06/06 04:18:09;;;;;;;4.55;4.15;;;22.20;60.80;;;;;;5056495;28;20583;-64
2022/06/06 04:20:54;;;;;;;4.70;4.18;;;22.20;60.60;;;;;;5055704;28;20121;-64
2022/06/06 04:23:57;;;;;;;4.72;4.32;;;22.20;60.70;;;;;;5036870;28;20130;-63
2022/06/06 04:26:34;;;;;;;4.22;3.83;;;22.20;60.50;;;;;;5053120;28;20044;-64
2022/06/06 04:29:31;;;;;;;4.93;4.43;;;22.20;60.70;;;;;;5055786;28;20127;-64
2022/06/06 04:32:02;;;;;;;5.10;4.22;;;22.20;60.70;;;;;;5055746;28;21062;-64
2022/06/06 04:35:06;;;;;;;5.22;4.57;;;22.20;60.60;;;;;;5056371;28;20055;-64
2022/06/06 04:37:40;;;;;;;4.60;4.20;;;22.20;60.40;;;;;;5055206;28;20059;-64
2022/06/06 04:40:35;;;;;;;4.80;4.25;;;22.10;60.50;;;;;;5047503;28;20041;-65
2022/06/06 04:43:30;;;;;;;5.00;4.50;;;22.20;60.40;;;;;;5054699;28;20144;-63
2022/06/06 04:46:21;;;;;;;5.43;4.28;;;22.20;60.40;;;;;;5054626;28;20044;-63
2022/06/06 04:48:47;;;;;;;4.97;4.20;;;22.10;60.30;;;;;;5038541;28;20171;-64
2022/06/06 04:51:17;;;;;;;4.90;4.45;;;22.10;60.40;;;;;;5057811;28;20045;-64
2022/06/06 04:53:46;;;;;;;4.63;4.13;;;22.10;60.30;;;;;;5056593;28;20554;-64
2022/06/06 04:56:14;;;;;;;5.32;4.65;;;22.10;60.30;;;;;;5038301;28;20044;-65
2022/06/06 04:58:42;;;;;;;5.60;4.63;;;22.10;60.30;;;;;;5056792;28;20033;-65
2022/06/06 05:01:10;;;;;;;4.82;4.38;;;22.10;60.20;;;;;;5055838;28;20068;-64
2022/06/06 05:03:35;;;;;;;4.80;4.35;;;22.10;60.20;;;;;;5056276;28;20400;-65
2022/06/06 05:06:20;;;;;;;6.03;4.40;;;22.10;60.20;;;;;;5056120;28;20041;-64
2022/06/06 05:09:22;;;;;;;5.20;4.47;;;22.10;60.10;;;;;;5051101;28;20040;-64
2022/06/06 05:12:00;;;;;;;4.85;3.72;;;22.10;60.00;;;;;;5033147;28;20048;-62
2022/06/06 05:14:35;;;;;;;4.68;3.95;;;22.10;60.10;;;;;;5051317;28;20983;-65
2022/06/06 05:17:31;;;;;;;4.47;4.07;;;22.10;60.10;;;;;;5051577;28;20047;-65
2022/06/06 05:20:19;;;;;;;4.78;3.78;;;22.10;60.00;;;;;;5052477;28;20048;-64
2022/06/06 05:22:48;;;;;;;4.60;4.00;;;22.10;60.00;;;;;;5051206;28;20060;-64
2022/06/06 05:25:19;;;;;;;4.75;4.03;;;22.10;60.00;;;;;;5053325;28;20063;-65
2022/06/06 05:27:56;;;;;;;5.70;4.72;;;22.10;60.00;;;;;;5053831;28;20041;-64
2022/06/06 05:30:45;;;;;;;4.40;4.00;;;22.10;60.10;;;;;;5053263;28;20037;-63
2022/06/06 05:33:23;;;;;;;4.40;4.00;;;22.10;60.00;;;;;;5048090;28;20061;-64
2022/06/06 05:36:01;;;;;;;4.57;4.18;;;22.10;60.10;;;;;;5054494;28;20055;-64
2022/06/06 05:38:30;;;;;;;4.82;4.32;;;22.10;60.10;;;;;;5053542;28;20131;-63
2022/06/06 05:41:14;;;;;;;4.40;3.88;;;22.10;60.00;;;;;;5054321;28;20048;-64
2022/06/06 05:43:58;;;;;;;4.38;3.97;;;22.10;59.80;;;;;;5052466;28;20048;-63
2022/06/06 05:46:44;;;;;;;4.57;4.13;;;22.10;59.80;;;;;;5058215;28;20063;-68
2022/06/06 05:49:22;;;;;;;4.88;4.47;;;22.10;59.90;;;;;;5052046;28;20097;-63
2022/06/06 05:52:03;;;;;;;6.43;4.75;;;22.10;59.90;;;;;;5055129;28;20040;-65
2022/06/06 05:54:55;;;;;;;5.60;3.80;;;22.10;60.40;;;;;;5033197;28;20045;-62
2022/06/06 05:58:03;;;;;;;5.60;4.03;;;22.10;59.90;;;;;;5049541;28;20059;-64
2022/06/06 06:00:58;;;;;;;4.93;4.07;;;22.10;59.80;;;;;;5030319;28;20056;-65
2022/06/06 06:03:42;;;;;;;5.47;4.80;;;22.00;59.90;;;;;;5016628;28;20110;-65
2022/06/06 06:06:11;;;;;;;10.63;5.13;;;22.10;59.70;;;;;;5051426;28;20045;-62
2022/06/06 06:08:42;;;;;;;7.15;4.90;;;22.10;59.80;;;;;;5051917;28;20054;-64
2022/06/06 06:11:59;;;;;;;6.13;4.95;;;22.10;59.60;;;;;;5034801;28;20328;-65
2022/06/06 06:15:13;;;;;;;7.40;5.05;;;22.10;59.80;;;;;;5050485;28;20463;-64
2022/06/06 06:17:40;;;;;;;8.38;5.20;;;22.10;60.00;;;;;;5048579;28;20045;-64
2022/06/06 06:20:10;;;;;;;5.60;4.72;;;22.10;60.00;;;;;;5050677;28;20045;-65
2022/06/06 06:22:51;;;;;;;6.57;5.13;;;22.10;60.00;;;;;;5052219;28;20500;-65
2022/06/06 06:25:19;;;;;;;6.45;4.65;;;22.00;60.00;;;;;;5049817;28;21164;-65
2022/06/06 06:27:45;;;;;;;9.43;5.40;;;22.00;60.00;;;;;;5048110;28;20998;-65
2022/06/06 06:30:13;;;;;;;9.70;6.03;;;22.10;59.90;;;;;;5048179;28;20075;-64
2022/06/06 06:33:21;;;;;;;8.82;5.85;;;22.10;60.00;;;;;;5049424;28;20053;-63
2022/06/06 06:35:47;;;;;;;6.40;5.10;;;22.10;59.80;;;;;;5046340;28;20550;-64
2022/06/06 06:38:22;;;;;;;8.20;5.65;;;22.10;60.00;;;;;;5050751;28;20268;-64
2022/06/06 06:41:10;;;;;;;8.20;6.60;;;22.10;59.90;;;;;;5032432;28;20048;-64
2022/06/06 06:44:06;;;;;;;11.20;7.05;;;22.10;59.70;;;;;;5047982;28;20037;-65
2022/06/06 06:46:43;;;;;;;9.60;5.90;;;22.10;59.60;;;;;;5053365;28;20118;-64
2022/06/06 06:49:16;;;;;;;7.45;5.60;;;22.10;59.80;;;;;;5053682;28;20056;-63
2022/06/06 06:52:11;;;;;;;8.90;5.57;;;22.10;59.90;;;;;;5050364;28;20090;-62
2022/06/06 06:54:54;;;;;;;6.65;5.68;;;22.10;60.00;;;;;;5034249;28;20045;-62
2022/06/06 06:57:49;;;;;;;9.02;6.20;;;22.10;59.90;;;;;;5052659;28;20480;-64
2022/06/06 07:00:23;;;;;;;8.18;5.72;;;22.10;60.00;;;;;;5054271;28;20071;-62
2022/06/06 07:09:13;;;;;;;6.95;5.90;;;22.10;60.10;;;;;;5054593;28;20574;-66
2022/06/06 07:12:00;;;;;;;9.43;6.30;;;22.10;60.10;;;;;;5050125;28;20044;-64
2022/06/06 07:14:53;;;;;;;8.80;5.88;;;22.10;60.00;;;;;;5052198;28;20051;-64
2022/06/06 07:17:21;;;;;;;7.82;6.18;;;22.10;60.00;;;;;;5051942;28;20113;-63
2022/06/06 07:20:08;;;;;;;9.60;7.10;;;22.10;60.00;;;;;;5053233;28;20464;-62
2022/06/06 07:22:59;;;;;;;7.22;6.43;;;22.10;60.00;;;;;;5054286;28;20040;-62
2022/06/06 07:25:48;;;;;;;8.88;7.50;;;22.10;60.00;;;;;;5047118;28;20045;-64
2022/06/06 07:28:21;;;;;;;10.80;7.25;;;22.10;59.70;;;;;;5052693;28;20041;-65
2022/06/06 07:30:47;;;;;;;9.90;7.07;;;22.10;59.80;;;;;;5052850;28;20450;-64
2022/06/06 07:33:34;;;;;;;10.60;8.48;;;22.10;59.50;;;;;;5052494;28;20049;-65
2022/06/06 07:36:03;;;;;;;12.05;7.70;;;22.10;59.60;;;;;;5053467;28;20489;-66
2022/06/06 07:38:58;;;;;;;10.60;8.40;;;22.10;59.50;;;;;;5053151;28;20048;-68
2022/06/06 07:41:27;;;;;;;12.20;8.45;;;22.10;59.10;;;;;;5035705;28;20040;-65
2022/06/06 07:44:18;;;;;;;8.38;7.53;;;22.10;59.00;;;;;;5051811;28;20455;-64
2022/06/06 07:47:01;;;;;;;9.88;7.85;;;22.10;58.60;;;;;;5051639;28;20072;-63
2022/06/06 07:49:27;;;;;;;8.10;7.10;;;22.00;58.70;;;;;;5053517;28;20091;-64
2022/06/06 07:52:07;;;;;;;11.40;6.78;;;22.00;58.70;;;;;;5050996;28;20036;-62
2022/06/06 07:55:00;;;;;;;8.40;6.85;;;22.00;58.60;;;;;;5053668;28;20044;-64
2022/06/06 07:57:49;;;;;;;10.95;6.65;;;22.00;58.70;;;;;;5047923;28;20036;-64
2022/06/06 08:00:21;;;;;;;9.32;6.70;;;22.00;58.90;;;;;;5051680;28;20439;-64
2022/06/06 08:03:17;;;;;;;6.82;6.00;;;22.00;59.10;;;;;;5034930;28;20063;-64
2022/06/06 08:06:16;;;;;;;8.95;6.22;;;22.00;59.10;;;;;;5051226;28;20048;-63
2022/06/06 08:09:02;;;;;;;8.50;5.80;;;22.10;59.30;;;;;;5050341;28;20033;-63
2022/06/06 08:12:05;;;;;;;7.13;4.65;;;22.10;59.40;;;;;;5043945;28;20056;-63
2022/06/06 08:14:39;;;;;;;7.95;4.80;;;22.10;59.50;;;;;;5050830;28;20042;-63
2022/06/06 08:17:22;;;;;;;9.70;4.97;;;22.10;59.50;;;;;;5051345;28;20044;-64
2022/06/06 08:20:27;;;;;;;5.97;4.47;;;22.10;59.40;;;;;;5050658;28;20395;-62
2022/06/06 08:22:58;;;;;;;5.63;4.10;;;22.10;59.10;;;;;;5032584;28;20051;-63
2022/06/06 08:25:23;;;;;;;;;;;22.10;59.30;;;;;;5051147;28;20040;-64
2022/06/06 08:27:51;;;;;;;5.63;3.33;;;22.00;59.80;;;;;;5034257;28;19952;-63
2022/06/06 08:30:19;;;;;;;4.13;3.58;;;22.00;59.10;;;;;;5054749;28;20481;-63
2022/06/06 08:32:45;;;;;;;5.22;2.92;;;22.00;59.10;;;;;;5053345;28;20048;-64
2022/06/06 08:35:11;;;;;;;3.92;2.92;;;22.10;59.20;;;;;;5048422;28;20052;-63
2022/06/06 08:38:02;;;;;;;5.43;3.25;;;22.10;59.10;;;;;;5052402;28;20059;-64
2022/06/06 08:40:55;;;;;;;4.10;2.72;;;22.10;58.80;;;;;;5050781;28;20571;-64
2022/06/06 08:43:36;;;;;;;9.55;2.67;;;22.10;58.70;;;;;;5052971;28;20036;-64
2022/06/06 08:46:07;;;;;;;5.25;2.40;;;22.10;58.60;;;;;;5052392;28;20049;-66
2022/06/06 08:50:44;;;;;;;5.60;2.30;;;22.10;58.40;;;;;;5049100;28;20045;-64
2022/06/06 08:52:15;;;;;;;7.30;2.78;;;22.10;58.10;;;;;;5050214;28;20697;-63
2022/06/06 08:55:27;;;;;;;4.07;2.22;;;22.10;58.20;;;;;;5047346;28;20045;-64
2022/06/06 08:58:30;;;;;;;3.72;2.28;;;22.10;58.20;;;;;;5048217;28;20047;-64
2022/06/06 09:01:21;;;;;;;4.78;2.40;;;22.10;58.40;;;;;;5051430;28;20048;-64
2022/06/06 09:04:08;;;;;;;6.05;2.30;;;22.10;58.50;;;;;;5045765;28;20053;-64
2022/06/06 09:06:51;;;;;;;4.10;2.38;;;22.10;58.40;;;;;;5050885;28;20040;-63
2022/06/06 09:09:38;;;;;;;5.47;2.15;;;22.10;58.40;;;;;;5032191;28;20059;-64
2022/06/06 09:12:40;;;;;;;4.28;1.88;;;22.10;58.10;;;;;;5047954;28;20033;-64
2022/06/06 09:15:28;;;;;;;4.28;1.60;;;22.10;58.40;;;;;;5047626;28;20048;-62
2022/06/06 09:17:53;;;;;;;3.97;2.00;;;22.10;58.50;;;;;;5030083;28;20081;-62
2022/06/06 09:20:33;;;;;;;5.22;1.90;;;22.10;58.50;;;;;;5048111;28;20143;-63
2022/06/06 09:23:35;;;;;;;2.77;1.83;;;22.10;58.50;;;;;;5049935;28;20544;-64
2022/06/06 09:26:30;;;;;;;3.45;2.17;;;22.20;58.50;;;;;;5049998;28;20830;-64
2022/06/06 09:29:08;;;;;;;4.32;1.77;;;22.20;58.50;;;;;;5050668;28;20674;-64
2022/06/06 09:32:02;;;;;;;4.63;2.13;;;22.20;58.30;;;;;;5050929;28;20039;-64
2022/06/06 09:34:31;;;;;;;5.03;2.13;;;22.20;58.90;;;;;;5051991;28;20133;-63
2022/06/06 09:37:18;;;;;;;4.80;1.70;;;22.10;58.00;;;;;;5050540;28;20047;-63
2022/06/06 09:39:56;;;;;;;3.50;1.92;;;22.20;57.80;;;;;;5055810;28;20052;-63
2022/06/06 09:42:46;;;;;;;2.85;1.60;;;22.10;57.80;;;;;;5050606;28;20040;-64
2022/06/06 09:45:32;;;;;;;5.47;1.77;;;22.20;57.30;;;;;;5051104;28;20401;-64
2022/06/06 09:48:38;;;;;;;2.72;1.50;;;22.10;57.10;;;;;;5055589;28;20036;-64
2022/06/06 09:51:35;;;;;;;3.83;1.80;;;22.20;57.10;;;;;;5049774;28;20861;-64
2022/06/06 10:01:08;;;;;;;3.22;1.70;;;22.10;56.90;;;;;;5054013;28;20036;-64
2022/06/06 10:04:01;;;;;;;5.03;1.70;;;22.10;56.90;;;;;;5051377;28;20369;-63
2022/06/06 10:07:04;;;;;;;2.47;1.27;;;22.10;56.80;;;;;;5053587;28;20140;-62
2022/06/06 10:09:38;;;;;;;1.88;1.33;;;22.10;56.60;;;;;;5055759;28;20071;-64
2022/06/06 10:12:13;;;;;;;3.67;1.25;;;22.10;56.60;;;;;;5053788;28;20036;-64
2022/06/06 10:14:47;;;;;;;6.22;1.30;;;22.10;55.60;;;;;;5057802;28;20145;-64
2022/06/06 10:17:27;;;;;;;3.45;1.40;;;22.10;55.30;;;;;;5054194;28;20064;-63
2022/06/06 10:19:53;;;;;;;1.65;1.25;;;22.10;55.20;;;;;;5055391;28;20049;-61
2022/06/06 10:22:50;;;;;;;3.28;1.55;;;22.10;55.30;;;;;;5056112;28;20052;-62
2022/06/06 10:25:46;;;;;;;3.08;1.58;;;22.10;55.00;;;;;;5055290;28;20685;-64
2022/06/06 10:28:31;;;;;;;2.58;1.50;;;22.10;55.00;;;;;;5037482;28;20380;-64
2022/06/06 10:31:35;;;;;;;6.80;1.50;;;22.10;55.00;;;;;;5045619;28;20109;-63
2022/06/06 10:34:10;;;;;;;4.32;1.67;;;22.10;54.90;;;;;;5041131;28;20499;-63
2022/06/06 10:36:58;;;;;;;4.10;1.50;;;22.10;55.20;;;;;;5036798;28;20107;-64
2022/06/06 10:39:30;;;;;;;2.58;1.13;;;22.10;55.70;;;;;;5026089;28;20130;-65
2022/06/06 10:42:03;;;;;;;7.65;1.48;;;22.00;55.70;;;;;;5039094;28;20049;-65
2022/06/06 10:44:47;;;;;;;2.88;1.27;;;22.00;55.80;;;;;;5036914;28;20053;-64
2022/06/06 10:47:56;;;;;;;3.75;1.10;;;22.00;55.90;;;;;;5036507;28;20048;-65
2022/06/06 10:51:36;;;;;;;2.70;1.25;;;22.00;56.10;;;;;;5035748;28;20033;-64
2022/06/06 10:54:06;;;;;;;3.50;1.13;;;22.00;56.30;;;;;;5035566;28;20135;-64
2022/06/06 10:57:02;;;;;;;2.45;1.38;;;22.00;56.50;;;;;;4987580;28;20084;-63
2022/06/06 10:59:46;;;;;;;3.13;1.10;;;22.00;56.60;;;;;;5036874;28;20029;-62
2022/06/06 11:02:36;;;;;;;3.38;1.00;;;22.00;56.60;;;;;;5033132;28;20056;-62
2022/06/06 11:05:20;;;;;;;2.50;1.30;;;22.00;56.80;;;;;;5033751;28;20045;-64
2022/06/06 11:07:54;;;;;;;2.05;1.48;;;22.00;56.90;;;;;;5028949;28;20647;-64
2022/06/06 11:10:35;;;;;;;3.20;1.15;;;22.00;57.00;;;;;;5031140;28;20037;-63
2022/06/06 11:13:30;;;;;;;1.48;1.17;;;22.00;57.10;;;;;;5031961;28;20052;-64
2022/06/06 11:16:29;;;;;;;2.25;1.25;;;22.00;57.00;;;;;;5009237;28;20132;-63
2022/06/06 11:19:35;;;;;;;4.30;1.38;;;22.00;57.00;;;;;;5031315;28;20495;-64
2022/06/06 11:22:35;;;;;;;2.10;0.90;;;22.00;57.20;;;;;;5033299;28;20042;-64
2022/06/06 11:25:11;;;;;;;2.78;0.80;;;22.00;57.20;;;;;;5022013;28;20552;-64
2022/06/06 11:28:02;;;;;;;1.90;1.23;;;22.00;57.40;;;;;;5032362;28;20145;-62
2022/06/06 11:30:54;;;;;;;1.48;1.00;;;22.00;57.60;;;;;;5031226;28;20037;-61
2022/06/06 11:33:49;;;;;;;5.30;1.15;;;22.00;57.60;;;;;;5012311;28;20059;-63
2022/06/06 11:36:20;;;;;;;3.42;1.13;;;22.00;57.40;;;;;;5051979;28;20044;-62
2022/06/06 11:39:19;;;;;;;2.38;1.05;;;22.00;57.40;;;;;;5048688;28;20405;-64
2022/06/06 11:42:12;;;;;;;2.85;1.00;;;22.00;57.60;;;;;;5046256;28;20041;-62
2022/06/06 11:44:53;;;;;;;2.15;1.10;;;22.00;57.60;;;;;;5035637;28;20134;-62
2022/06/06 11:47:58;;;;;;;2.65;1.08;;;22.00;57.70;;;;;;5040358;28;20071;-63
2022/06/06 11:51:01;;;;;;;4.93;1.10;;;22.00;57.70;;;;;;5046574;28;21395;-64
2022/06/06 11:54:00;;;;;;;1.98;1.15;;;22.00;57.90;;;;;;5048418;28;20036;-64
2022/06/06 11:56:36;;;;;;;1.30;1.08;;;22.00;57.80;;;;;;5049889;28;20275;-64
2022/06/06 11:59:49;;;;;;;3.97;1.20;;;22.00;57.70;;;;;;5049791;28;20036;-64
2022/06/06 12:02:41;;;;;;;4.05;1.10;;;22.00;57.70;;;;;;5048394;28;20051;-62
2022/06/06 12:05:26;;;;;;;1.75;1.10;;;22.00;57.90;;;;;;5049466;28;20043;-63
2022/06/06 12:08:18;;;;;;;4.00;1.33;;;22.00;57.80;;;;;;5048094;28;20111;-61
2022/06/06 12:10:52;;;;;;;4.10;1.10;;;22.00;58.00;;;;;;5048589;28;20445;-62
2022/06/06 12:13:36;;;;;;;1.60;1.05;;;22.00;58.40;;;;;;5049575;28;20036;-65
2022/06/06 12:16:31;;;;;;;4.75;0.98;;;22.00;58.20;;;;;;5051175;28;20036;-65
2022/06/06 12:18:56;;;;;;;4.43;1.38;;;22.00;58.30;;;;;;5049387;28;20066;-64
2022/06/06 12:21:42;;;;;;;1.65;1.00;;;22.00;58.40;;;;;;5050118;28;20666;-64
2022/06/06 12:24:26;;;;;;;2.17;0.98;;;22.10;58.60;;;;;;5046620;28;20071;-63
2022/06/06 12:27:14;;;;;;;1.30;1.02;;;22.10;58.70;;;;;;5050775;28;20033;-64
2022/06/06 12:29:48;;;;;;;2.03;0.95;;;22.10;58.70;;;;;;5049847;28;20143;-63
2022/06/06 12:32:33;;;;;;;2.70;1.35;;;22.00;58.80;;;;;;5044851;28;20546;-64
2022/06/06 12:35:16;;;;;;;1.75;1.10;;;22.10;58.80;;;;;;5028473;28;20101;-62
2022/06/06 12:37:57;;;;;;;3.42;1.10;;;22.10;59.10;;;;;;5029861;28;20036;-62
2022/06/06 12:40:25;;;;;;;;;;;22.10;58.90;;;;;;5030063;28;20043;-64
2022/06/06 12:43:09;;;;;;;1.83;0.95;;;22.10;59.20;;;;;;5029635;28;20270;-65
2022/06/06 12:45:47;;;;;;;2.80;1.10;;;22.00;59.10;;;;;;5027966;28;20045;-63
2022/06/06 12:48:35;;;;;;;2.90;0.90;;;22.10;59.30;;;;;;5028358;28;20033;-65
2022/06/06 12:51:25;;;;;;;2.00;1.00;;;22.10;59.50;;;;;;5028205;28;20457;-65
2022/06/06 12:54:12;;;;;;;3.20;1.05;;;22.10;59.60;;;;;;5029624;28;20334;-63
2022/06/06 12:56:38;;;;;;;2.47;1.15;;;22.10;59.50;;;;;;5026935;28;20102;-64
2022/06/06 12:59:25;;;;;;;1.55;0.88;;;22.10;59.60;;;;;;5027490;28;20045;-64
2022/06/06 13:02:45;;;;;;;0.77;0.70;;;22.10;59.70;;;;;;5024945;28;20049;-65
2022/06/06 13:05:13;;;;;;;2.67;1.17;;;22.10;60.00;;;;;;4989816;28;20452;-64
2022/06/06 13:08:05;;;;;;;1.67;1.00;;;22.10;59.90;;;;;;5028598;28;20240;-64
2022/06/06 13:10:56;;;;;;;2.00;1.02;;;22.10;60.00;;;;;;5027283;28;20040;-61
2022/06/06 13:13:24;;;;;;;1.60;1.10;;;22.10;60.30;;;;;;5029423;28;20041;-62
2022/06/06 13:16:25;;;;;;;2.00;0.90;;;22.10;60.10;;;;;;5030415;28;20190;-65
2022/06/06 13:19:29;;;;;;;2.03;0.90;;;22.10;60.30;;;;;;5030407;28;20048;-63
2022/06/06 13:22:00;;;;;;;1.85;0.98;;;22.10;60.20;;;;;;5021992;28;20453;-66
2022/06/06 13:25:06;;;;;;;1.85;1.10;;;22.10;60.20;;;;;;5026497;28;20405;-65
2022/06/06 13:27:56;;;;;;;1.70;0.90;;;22.10;60.30;;;;;;5029835;28;20100;-65
2022/06/06 13:30:50;;;;;;;1.38;0.77;;;22.10;60.20;;;;;;5029915;28;20037;-64
2022/06/06 13:33:24;;;;;;;0.90;0.90;;;22.10;60.30;;;;;;5012845;28;20579;-64
2022/06/06 13:36:05;;;;;;;1.75;1.10;;;22.10;60.30;;;;;;5049159;28;20073;-65
2022/06/06 13:38:36;;;;;;;;;;;22.10;60.40;;;;;;5049786;28;20056;-65
2022/06/06 13:41:36;;;;;;;1.48;1.30;;;22.10;60.20;;;;;;5049798;28;19921;-65
2022/06/06 13:44:26;;;;;;;1.83;1.00;;;22.10;60.30;;;;;;5048045;28;20299;-63
2022/06/06 13:46:52;;;;;;;2.28;0.90;;;22.10;60.30;;;;;;5052749;28;20052;-62
2022/06/06 13:49:41;;;;;;;2.58;1.30;;;22.10;60.20;;;;;;5048669;28;20041;-63
2022/06/06 13:52:26;;;;;;;1.85;1.17;;;22.10;60.30;;;;;;5046225;28;21817;-65
2022/06/06 13:54:52;;;;;;;2.65;1.20;;;22.10;60.20;;;;;;5048857;28;20044;-63
2022/06/06 13:57:26;;;;;;;2.15;1.00;;;22.10;60.20;;;;;;5049170;28;20049;-64
2022/06/06 14:00:10;;;;;;;3.78;1.20;;;22.10;60.20;;;;;;5048145;28;20846;-64
2022/06/06 14:02:54;;;;;;;2.25;1.00;;;22.10;60.30;;;;;;5053106;28;20044;-63
2022/06/06 14:05:51;;;;;;;1.70;1.10;;;22.10;60.20;;;;;;5051021;28;21363;-65
2022/06/06 14:08:20;;;;;;;2.38;1.45;;;22.10;60.20;;;;;;5041927;28;20108;-64
2022/06/06 14:10:52;;;;;;;2.33;1.27;;;22.10;60.20;;;;;;5033792;28;20112;-65
2022/06/06 14:13:46;;;;;;;3.15;1.58;;;22.10;60.20;;;;;;5054752;28;20492;-65
2022/06/06 14:16:41;;;;;;;3.22;1.40;;;22.10;60.10;;;;;;5052723;28;20068;-62
2022/06/06 14:19:10;;;;;;;4.15;1.50;;;22.10;60.30;;;;;;5012951;28;20580;-63
2022/06/06 14:21:38;;;;;;;2.47;1.50;;;22.10;60.30;;;;;;5052179;28;20497;-65